Tiempo atmosférico en la estación meteorológica de Barcena de Cicero, Treto, Cantabria (10 m.)



Fecha
DESCASC
Temp. máxima en grados centígrados (hora)
DESCASC
Temp. mínima en grados centígrados (hora)
DESCASC
Temp. media en grados centígrados
DESCASC
Racha de viento máxima en m/sg (hora)
DESCASC
Velocidad máxima media en intervalos de 10 minutos(hora)
DESCASC
Precipitaciones diarias en mm
DESCASC
Precipitaciones de 00:00 a 06:00 en mm
DESCASC
Precipitaciones de 06:00 a 12:00 en mm
DESCASC
Precipitaciones de 12:00 a 18:00 en mm
DESCASC
Precipitaciones de 18:00 a 24:00 en mm
DESCASC
26-03-2020 13.1 (14:30) 5.3 (23:59) 9.2 9.72 (11:00) 4.72 (09:50) 0 0 0 0 0
25-03-2020 15.5 (12:50) 5.3 (06:20) 10.4 6.94 (12:00) 4.17 (15:40) 0 0 0 0 0
24-03-2020 18.2 (12:20) 6.8 (07:20) 12.5 10.83 (16:40) 7.78 (16:30) 0 0 0 0 0
23-03-2020 14.7 (12:50) 11.3 (07:20) 13 10 (16:10) 7.22 (16:10) 0 0 0 0 0
22-03-2020 16.8 (16:00) 8.9 (00:30) 12.8 7.5 (17:30) 4.72 (14:40) 0 0 0 0 0
21-03-2020 19.8 (14:20) 9.3 (00:00) 14.5 10 (16:10) 6.67 (16:10) 0 0 0 0 0
20-03-2020 20 (15:50) 7.7 (00:00) 13.8 8.33 (13:10) 4.72 (11:50) 0 0 0 0 0
19-03-2020 14.6 (14:50) 10.7 (00:00) 12.7 5.28 (15:20) 3.61 (15:30) 0 0 0 0 0
18-03-2020 13.9 (15:40) 6.5 (00:00) 10.2 3.33 (12:50) 2.22 (03:50) 0 0 0 0 0
17-03-2020 12.6 (17:50) 9 (00:00) 10.8 6.39 (20:30) 3.61 (16:50) 1.4 1 0.4 0 0
16-03-2020 11.4 (20:00) 6.8 (00:00) 9.1 8.33 (13:50) 4.17 (05:10) 24 8 10 5.6 0.4
15-03-2020 14.8 (13:10) 3 (00:00) 8.9 11.39 (20:00) 5.56 (20:00) 6.8 0 0 0.2 6.6
14-03-2020 14.9 (14:20) 2.9 (00:00) 8.9 7.22 (15:50) 5 (14:40) 0 0 0 0 0
13-03-2020 13.3 (13:40) 5.3 (23:20) 9.3 8.33 (12:40) 5.83 (13:00) 2 1.8 0.2 0 0
12-03-2020 15.1 (14:50) 7.9 (00:00) 11.5 6.11 (16:50) 3.06 (16:40) 4 0 0 1.6 2.4
11-03-2020 15.4 (16:10) 5.7 (00:00) 10.5 8.89 (14:10) 5.83 (14:00) 0 0 0 0 0
10-03-2020 15.2 (14:50) 6 (00:00) 10.6 6.11 (04:30) 3.61 (04:30) 0 0 0 0 0
09-03-2020 13.8 (13:10) 8.4 (00:00) 11.1 11.11 (15:50) 5.83 (12:20) 1 0.8 0.2 0 0
08-03-2020 17.9 (14:50) 4.3 (00:00) 11.1 10.28 (16:10) 6.11 (16:50) 2.8 0 0 0 2.8
07-03-2020 14.8 (15:00) 6.1 (00:00) 10.5 10.28 (01:30) 5.28 (11:20) 1.4 0 1.4 0 0
06-03-2020 11.4 (14:30) 6.8 (00:00) 9.1 21.39 (07:40) 9.17 (04:50) 16.6 7.2 6.4 0.6 2.4
05-03-2020 19.9 (06:30) 9.4 (00:00) 14.6 20 (14:20) 9.17 (13:00) 13.4 0 7 1.8 4.6
04-03-2020 18.6 (13:10) 10.5 (00:00) 14.6 8.89 (11:00) 3.33 (20:40) 4.6 4.6 0 0 0
03-03-2020 18.2 (11:30) 6.9 (00:00) 12.6 24.17 (14:10) 12.78 (14:30) 4 1.2 2.4 0 0.4
02-03-2020 16.5 (01:00) 6.6 (00:00) 11.5 20.83 (07:00) 10.28 (07:00) 29.4 11.8 7.4 9 1.2
01-03-2020 17.5 (10:50) 5.6 (00:00) 11.5 13.61 (08:00) 6.39 (11:30) 0.2 0 0 0 0.2
29-02-2020 19.6 (02:10) 10 (00:00) 14.8 17.22 (04:20) 7.78 (04:20) 0 0 0 0 0
28-02-2020 17.2 (15:00) 7.7 (00:00) 12.5 6.39 (09:30) 3.89 (09:30) 0 0 0 0 0

Gráficas

Temp. máximas Temp. mínimas Temp. medias Precipitaciones Rachas de viento máximas Velocidades máximas media en intervalos de 10 minutos

Datos horarios

Fecha y hora oficial Temperatura (ºC) Velocidad del viento (km/h) Dirección del viento Racha (km/h) Dirección de racha Precipitación (mm) Presión (hPa) Tendencia (hPa) Humedad (%)
2020-03-28 23:00:00 7.1 7 Sur 14 Sudoeste 0 -- -- 94
2020-03-28 22:00:00 7.2 3 Sur 5 Sur 0 -- -- 89
2020-03-28 21:00:00 8.9 2 Noroeste 4 Noroeste 0 -- -- 82
2020-03-28 20:00:00 11.8 2 Este 11 Este 0 -- -- 73
2020-03-28 19:00:00 13.2 5 Nordeste 20 Este 0 -- -- 70
2020-03-28 18:00:00 13.8 13 Este 26 Sudeste 0 -- -- 68
2020-03-28 17:00:00 13.6 17 Este 25 Este 0 -- -- 74
2020-03-28 16:00:00 13.8 16 Este 26 Este 0 -- -- 73
2020-03-28 15:00:00 14.1 12 Este 22 Este 0 -- -- 70
2020-03-28 14:00:00 14.1 12 Este 20 Este 0 -- -- 68
2020-03-28 13:00:00 13.8 10 Este 17 Este 0 -- -- 67
2020-03-28 12:00:00 13.8 8 Este 15 Nordeste 0 -- -- 64
2020-03-28 11:00:00 12.7 3 Este 7 Sudeste 0 -- -- 61
2020-03-28 10:00:00 9.5 7 Sur 15 Sur 0 -- -- 78
2020-03-28 09:00:00 6 7 Sur 14 Sur 0 -- -- 92
2020-03-28 08:00:00 3.7 8 Sur 15 Sur 0 -- -- 95
2020-03-28 07:00:00 3.4 7 Sur 16 Sur 0 -- -- 94
2020-03-28 06:00:00 3.4 10 Sur 19 Sur 0 -- -- 94
2020-03-28 05:00:00 4.3 13 Sur 22 Sur 0 -- -- 93
2020-03-28 04:00:00 4.4 6 Sur 13 Sur 0 -- -- 90
2020-03-28 03:00:00 5.1 8 Sur 17 Sur 0 -- -- 90
2020-03-28 02:00:00 4.9 7 Sur 19 Sur 0 -- -- 90
2020-03-28 01:00:00 5.3 9 Sur 17 Sur 0 -- -- 91
2020-03-28 00:00:00 5.7 6 Sur 14 Sur 0 -- -- 88
2020-03-27 23:00:00 6.3 7 Sur 13 Sur 0 -- -- 86
2020-03-27 22:00:00 7.3 5 Sur 10 Sur 0 -- -- 81
2020-03-27 21:00:00 8.9 3 Sudoeste 10 Sudoeste 0 -- -- 73
2020-03-27 20:00:00 10.1 6 Sudeste 21 Este 0 -- -- 70
2020-03-27 19:00:00 11.1 12 Este 29 Este 0 -- -- 68
2020-03-27 18:00:00 12.1 19 Este 34 Este 0 -- -- 62
2020-03-27 17:00:00 12.6 21 Este 32 Este 0 -- -- 62
2020-03-27 16:00:00 12.6 18 Este 32 Este 0 -- -- 63
2020-03-27 15:00:00 12.7 17 Este 33 Este 0 -- -- 60
2020-03-27 14:00:00 12.4 18 Este 30 Este 0 -- -- 66
2020-03-27 13:00:00 12.4 15 Este 24 Este 0 -- -- 60
2020-03-27 12:00:00 12.5 12 Este 22 Este 0 -- -- 57
2020-03-27 11:00:00 12 3 Este 13 Sur 0 -- -- 57
2020-03-27 10:00:00 8.7 8 Sur 21 Sur 0 -- -- 71
2020-03-27 09:00:00 5.4 11 Sur 22 Sur 0 -- -- 88
2020-03-27 08:00:00 2.2 8 Sur 19 Sur 0 -- -- 94
2020-03-27 07:00:00 2.3 10 Sur 23 Sur 0 -- -- 94
2020-03-27 06:00:00 2.2 8 Sur 18 Sur 0 -- -- 92
2020-03-27 05:00:00 2.6 9 Sudoeste 17 Sur 0 -- -- 93
2020-03-27 04:00:00 2.6 8 Sudoeste 15 Sur 0 -- -- 90
2020-03-27 03:00:00 3.5 5 Sur 13 Sur 0 -- -- 87
2020-03-27 02:00:00 3.8 7 Sudoeste 15 Sudoeste 0 -- -- 87
2020-03-27 01:00:00 4.4 3 Sudoeste 12 Sudoeste 0 -- -- 84
2020-03-27 00:00:00 5.3 4 Sur 11 Sur 0 -- -- 78
2020-03-26 23:00:00 6 6 Sur 12 Sudoeste 0 -- -- 79
2020-03-26 22:00:00 5.5 3 Sur 7 Noroeste 0 -- -- 72
2020-03-26 21:00:00 7.1 5 Noroeste 8 Oeste 0 -- -- 64
2020-03-26 20:00:00 8.2 5 Noroeste 11 Norte 0 -- -- 60
2020-03-26 19:00:00 9.9 7 Norte 23 Norte 0 -- -- 52
2020-03-26 18:00:00 10.7 13 Nordeste 28 Nordeste 0 -- -- 49
2020-03-26 17:00:00 11.7 15 Nordeste 28 Nordeste 0 -- -- 53
2020-03-26 16:00:00 12.8 11 Norte 26 Nordeste 0 -- -- 50
2020-03-26 15:00:00 12.8 14 Nordeste 26 Nordeste 0 -- -- 50
2020-03-26 14:00:00 12.9 11 Nordeste 27 Norte 0 -- -- 53
2020-03-26 13:00:00 13 16 Nordeste 28 Nordeste 0 -- -- 50
2020-03-26 12:00:00 12.2 9 Norte 29 Norte 0 -- -- 56
2020-03-26 11:00:00 11.8 17 Norte 35 Norte 0 -- -- 60
2020-03-26 10:00:00 11.8 14 Norte 29 Norte 0 -- -- 56
2020-03-26 09:00:00 10.8 9 Noroeste 22 Oeste 0 -- -- 68
2020-03-26 08:00:00 10 10 Noroeste 22 Oeste 0 -- -- 72
2020-03-26 07:00:00 9.8 11 Noroeste 24 Noroeste 0 -- -- 70
2020-03-26 06:00:00 9.7 11 Noroeste 25 Noroeste 0 -- -- 69
2020-03-26 05:00:00 9.7 12 Noroeste 24 Noroeste 0 -- -- 67
2020-03-26 04:00:00 9.8 12 Noroeste 26 Noroeste 0 -- -- 67
2020-03-26 03:00:00 9.2 5 Oeste 18 Oeste 0 -- -- 68
2020-03-26 02:00:00 8 5 Sur 12 Sur 0 -- -- 83
2020-03-26 01:00:00 7.6 8 Sur 13 Sur 0 -- -- 83
2020-03-26 00:00:00 7.4 5 Sudoeste 16 Oeste 0 -- -- 79
2020-03-25 23:00:00 8.3 5 Oeste 14 Oeste 0 -- -- 75
2020-03-25 22:00:00 7.8 5 Oeste 10 Oeste 0 -- -- 79
2020-03-25 21:00:00 7.9 0 Calma 7 Oeste 0 -- -- 77
2020-03-25 20:00:00 9.6 4 Norte 16 Norte 0 -- -- 71
2020-03-25 19:00:00 11.5 9 Norte 22 Norte 0 -- -- 64
2020-03-25 18:00:00 13.4 12 Norte 23 Norte 0 -- -- 56
2020-03-25 17:00:00 13.9 12 Nordeste 24 Nordeste 0 -- -- 60
2020-03-25 16:00:00 13.7 14 Nordeste 25 Norte 0 -- -- 66
2020-03-25 15:00:00 14.4 10 Nordeste 20 Este 0 -- -- 67
2020-03-25 14:00:00 14.4 12 Nordeste 24 Norte 0 -- -- 74
2020-03-25 13:00:00 15.4 13 Norte 23 Norte 0 -- -- 73
2020-03-25 12:00:00 14.9 14 Norte 25 Norte 0 -- -- 77
2020-03-25 11:00:00 14.8 7 Nordeste 13 Norte 0 -- -- 77
2020-03-25 10:00:00 12.2 6 Sur 10 Sur 0 -- -- 87
2020-03-25 09:00:00 8.7 4 Sur 12 Sur 0 -- -- 100
2020-03-25 08:00:00 5.9 5 Sur 11 Sudoeste 0 -- -- 100
2020-03-25 07:00:00 5.5 6 Sur 9 Sudoeste 0 -- -- 99
2020-03-25 06:00:00 5.6 3 Sur 10 Sur 0 -- -- 98
2020-03-25 05:00:00 5.7 0 Calma 5 Sudoeste 0 -- -- 97
2020-03-25 04:00:00 6.5 3 Sudoeste 8 Sudoeste 0 -- -- 98
2020-03-25 03:00:00 7.2 3 Sudoeste 11 Sur 0 -- -- 97
2020-03-25 02:00:00 7.4 4 Sudoeste 10 Sur 0 -- -- 98
2020-03-25 01:00:00 7.7 6 Sudoeste 9 Sur 0 -- -- 97
2020-03-25 00:00:00 8.3 4 Sur 11 Sudoeste 0 -- -- 96
2020-03-24 23:00:00 8.8 4 Sudoeste 9 Sur 0 -- -- 96
2020-03-24 22:00:00 9.7 0 Calma 4 Sudoeste 0 -- -- 94
2020-03-24 21:00:00 11.5 3 Oeste 8 Nordeste 0 -- -- 91
2020-03-24 20:00:00 13.1 3 Norte 23 Este 0 -- -- 90
2020-03-24 19:00:00 13.8 12 Este 24 Este 0 -- -- 84
2020-03-24 18:00:00 14.8 14 Este 32 Este 0 -- -- 82
2020-03-24 17:00:00 15.1 26 Este 39 Este 0 -- -- 80
2020-03-24 16:00:00 15.8 22 Este 33 Este 0 -- -- 76
2020-03-24 15:00:00 16.4 17 Este 30 Este 0 -- -- 74
2020-03-24 14:00:00 16.6 16 Este 32 Este 0 -- -- 76
2020-03-24 13:00:00 17.5 12 Nordeste 30 Este 0 -- -- 69
2020-03-24 12:00:00 18 15 Este 23 Este 0 -- -- 62
2020-03-24 11:00:00 15.9 16 Este 24 Este 0 -- -- 72
2020-03-24 10:00:00 14.5 2 Sudeste 9 Sur 0 -- -- 86
2020-03-24 09:00:00 10.7 4 Sur 8 Sur 0 -- -- 100
2020-03-24 08:00:00 7.5 4 Sur 8 Sudoeste 0 -- -- 99
2020-03-24 07:00:00 7.1 4 Sur 10 Sur 0 -- -- 99
2020-03-24 06:00:00 7.2 9 Sudoeste 13 Sudoeste 0 -- -- 99
2020-03-24 05:00:00 7.5 4 Sur 9 Sur 0 -- -- 98
2020-03-24 04:00:00 7.9 4 Sur 8 Sur 0 -- -- 97
2020-03-24 03:00:00 8.4 4 Sur 11 Sur 0 -- -- 96
2020-03-24 02:00:00 9.1 0 Calma 5 Sudoeste 0 -- -- 94
2020-03-24 01:00:00 10.3 3 Sur 5 Sur 0 -- -- 89
2020-03-24 00:00:00 12.3 3 Sudeste 12 Este 0 -- -- 84
2020-03-23 23:00:00 12.9 7 Este 14 Este 0 -- -- 81
2020-03-23 22:00:00 13.2 8 Este 17 Este 0 -- -- 81
2020-03-23 21:00:00 13.1 4 Este 13 Este 0 -- -- 83
2020-03-23 20:00:00 13.1 7 Este 18 Este 0 -- -- 83
2020-03-23 19:00:00 13.3 9 Este 32 Este 0 -- -- 79
2020-03-23 18:00:00 13.9 23 Este 35 Este 0 -- -- 78
2020-03-23 17:00:00 14.1 22 Este 36 Este 0 -- -- 75
2020-03-23 16:00:00 14.3 21 Este 33 Este 0 -- -- 75
2020-03-23 15:00:00 14.3 24 Este 33 Este 0 -- -- 73
2020-03-23 14:00:00 14.2 17 Este 28 Este 0 -- -- 73
2020-03-23 13:00:00 14.5 17 Este 23 Este 0 -- -- 74
2020-03-23 12:00:00 13.8 12 Este 19 Este 0 -- -- 78
2020-03-23 11:00:00 13.9 10 Este 15 Este 0 -- -- 78
2020-03-23 10:00:00 12.7 3 Nordeste 5 Nordeste 0 -- -- 89
2020-03-23 09:00:00 12.2 4 Sudoeste 9 Sur 0 -- -- 93
2020-03-23 08:00:00 11.5 4 Norte 5 Norte 0 -- -- 95
2020-03-23 07:00:00 11.4 0 Calma 5 Sudoeste 0 -- -- 94
2020-03-23 06:00:00 11.4 2 Sudoeste 4 Sudoeste 0 -- -- 94
2020-03-23 05:00:00 11.6 3 Norte 4 Norte 0 -- -- 93
2020-03-23 04:00:00 11.6 2 Sur 4 Sur 0 -- -- 94
2020-03-23 03:00:00 11.5 3 Norte 6 Norte 0 -- -- 93
2020-03-23 02:00:00 11.5 5 Norte 6 Norte 0 -- -- 92
2020-03-23 01:00:00 12 3 Noroeste 6 Norte 0 -- -- 90
2020-03-23 00:00:00 12.5 5 Norte 9 Norte 0 -- -- 90
2020-03-22 23:00:00 12.3 5 Norte 8 Norte 0 -- -- 91
2020-03-22 22:00:00 11.9 0 Calma 8 Noroeste 0 -- -- 88
2020-03-22 21:00:00 12.4 5 Noroeste 9 Norte 0 -- -- 89
2020-03-22 20:00:00 12.7 0 Calma 17 Noroeste 0 -- -- 82
2020-03-22 19:00:00 13.8 13 Norte 23 Noroeste 0 -- -- 76
2020-03-22 18:00:00 15.2 14 Norte 27 Norte 0 -- -- 69
2020-03-22 17:00:00 16.1 15 Norte 24 Norte 0 -- -- 65
2020-03-22 16:00:00 16.8 12 Norte 23 Norte 0 -- -- 66
2020-03-22 15:00:00 16.4 13 Norte 26 Noroeste 0 -- -- 67
2020-03-22 14:00:00 15.9 14 Norte 22 Norte 0 -- -- 68
2020-03-22 13:00:00 16.3 6 Noroeste 18 Norte 0 -- -- 65
2020-03-22 12:00:00 15.1 10 Norte 19 Noroeste 0 -- -- 71
2020-03-22 11:00:00 14.3 10 Noroeste 21 Oeste 0 -- -- 75
2020-03-22 10:00:00 13.3 5 Oeste 16 Noroeste 0 -- -- 81
2020-03-22 09:00:00 12.3 0 Calma 13 Oeste 0 -- -- 86
2020-03-22 08:00:00 11.9 7 Oeste 14 Oeste 0 -- -- 86
2020-03-22 07:00:00 11.5 4 Oeste 9 Noroeste 0 -- -- 94
2020-03-22 06:00:00 11.5 3 Sur 6 Sur 0 -- -- 94
2020-03-22 05:00:00 11.6 4 Sur 7 Sur 0 -- -- 93
2020-03-22 04:00:00 11.9 3 Oeste 14 Oeste 0 -- -- 93
2020-03-22 03:00:00 11.2 4 Oeste 8 Oeste 0 -- -- 97
2020-03-22 02:00:00 10.1 6 Sudoeste 10 Sur 0 -- -- 98
2020-03-22 01:00:00 9 5 Sur 9 Sudoeste 0 -- -- 96
2020-03-22 00:00:00 9.3 0 Calma 3 Sur 0 -- -- 95
2020-03-21 23:00:00 10.4 0 Calma 3 Norte 0 -- -- 93
2020-03-21 22:00:00 11.4 2 Noroeste 11 Norte 0 -- -- 88
2020-03-21 21:00:00 12.4 5 Norte 12 Noroeste 0 -- -- 82
2020-03-21 20:00:00 13.3 4 Oeste 12 Este 0 -- -- 74
2020-03-21 19:00:00 14.6 4 Norte 18 Nordeste 0 -- -- 68
2020-03-21 18:00:00 15.3 12 Nordeste 29 Este 0 -- -- 63
2020-03-21 17:00:00 15.9 15 Este 36 Este 0 -- -- 63
2020-03-21 16:00:00 15.8 22 Este 35 Este 0 -- -- 63
2020-03-21 15:00:00 17.5 10 Nordeste 24 Nordeste 0 -- -- 57
2020-03-21 14:00:00 19.5 6 Nordeste 14 Este 0 -- -- 50
2020-03-21 13:00:00 18.7 6 Este 14 Nordeste 0 -- -- 53
2020-03-21 12:00:00 17.4 8 Nordeste 15 Este 0 -- -- 57
2020-03-21 11:00:00 15.9 14 Este 24 Este 0 -- -- 70
2020-03-21 10:00:00 17 3 Sudeste 8 Sudeste 0 -- -- 58
2020-03-21 09:00:00 13.1 2 Nordeste 8 Este 0 -- -- 77
2020-03-21 08:00:00 11.7 2 Norte 16 Sudoeste 0 -- -- 73
2020-03-21 07:00:00 11.2 5 Norte 17 Oeste 0 -- -- 75
2020-03-21 06:00:00 9.7 3 Noroeste 8 Norte 0 -- -- 85
2020-03-21 05:00:00 11.2 3 Oeste 12 Sur 0 -- -- 76
2020-03-21 04:00:00 13 6 Sur 19 Sur 0 -- -- 69
2020-03-21 03:00:00 11.5 0 Calma 9 Sudoeste 0 -- -- 82
2020-03-21 02:00:00 11.9 4 Noroeste 12 Norte 0 -- -- 80
2020-03-21 01:00:00 12.5 5 Norte 9 Norte 0 -- -- 76
2020-03-21 00:00:00 13.6 3 Norte 26 Sur 0 -- -- 66
2020-03-20 23:00:00 16 10 Sur 28 Sudeste 0 -- -- 55
2020-03-20 22:00:00 15.5 6 Sur 20 Sur 0 -- -- 57
2020-03-20 21:00:00 15.5 7 Sur 15 Sur 0 -- -- 59
2020-03-20 20:00:00 16.4 4 Sudeste 15 Sur 0 -- -- 55
2020-03-20 19:00:00 18 9 Sur 19 Sur 0 -- -- 48
2020-03-20 18:00:00 18.5 11 Sur 24 Sur 0 -- -- 48
2020-03-20 17:00:00 18.6 9 Sur 27 Sur 0 -- -- 47
2020-03-20 16:00:00 19.7 13 Sur 23 Sur 0 -- -- 43
2020-03-20 15:00:00 19.6 10 Sur 20 Sur 0 -- -- 39
2020-03-20 14:00:00 19 14 Sur 30 Sur 0 -- -- 40
2020-03-20 13:00:00 19.3 14 Sur 28 Sur 0 -- -- 42
2020-03-20 12:00:00 18.8 15 Sur 30 Sur 0 -- -- 37
2020-03-20 11:00:00 17.8 12 Sur 21 Sur 0 -- -- 40
2020-03-20 10:00:00 14 7 Sur 14 Sur 0 -- -- 94
2020-03-20 09:00:00 10 0 Calma 6 Norte 0 -- -- 100
2020-03-20 08:00:00 8 3 Sur 7 Oeste 0 -- -- 100
2020-03-20 07:00:00 8 0 Calma 9 Norte 0 -- -- 99
2020-03-20 06:00:00 8.6 3 Noroeste 8 Noroeste 0 -- -- 100
2020-03-20 05:00:00 9.2 0 Calma 5 Sudeste 0 -- -- 98
2020-03-20 04:00:00 10.5 3 Sur 5 Sur 0 -- -- 97
2020-03-20 03:00:00 11.6 3 Oeste 8 Oeste 0 -- -- 96
2020-03-20 02:00:00 12.1 0 Calma 5 Nordeste 0 -- -- 97
2020-03-20 01:00:00 12.2 3 Sudeste 5 Este 0 -- -- 97
2020-03-20 00:00:00 12.4 2 Sudeste 5 Nordeste 0 -- -- 98
2020-03-19 23:00:00 12.4 0 Calma 5 Noroeste 0 -- -- 98
2020-03-19 22:00:00 12.4 2 Noroeste 5 Norte 0 -- -- 97
2020-03-19 21:00:00 12.5 4 Este 7 Nordeste 0 -- -- 97
2020-03-19 20:00:00 12.6 3 Este 6 Este 0 -- -- 97
2020-03-19 19:00:00 12.6 5 Este 13 Este 0 -- -- 95
2020-03-19 18:00:00 13.1 9 Este 14 Este 0 -- -- 93
2020-03-19 17:00:00 13.6 9 Este 16 Este 0 -- -- 91
2020-03-19 16:00:00 14.1 10 Este 19 Este 0 -- -- 90
2020-03-19 15:00:00 14.5 9 Este 16 Este 0 -- -- 89
2020-03-19 14:00:00 14 8 Nordeste 13 Este 0 -- -- 89
2020-03-19 13:00:00 13.1 6 Este 11 Este 0 -- -- 93
2020-03-19 12:00:00 12.6 5 Este 8 Este 0 -- -- 97
2020-03-19 11:00:00 12 3 Nordeste 6 Sudeste 0 -- -- 100
2020-03-19 10:00:00 11 4 Sur 12 Sur 0 -- -- 100
2020-03-19 09:00:00 10.8 7 Sur 12 Sur 0 -- -- 100
2020-03-19 08:00:00 11 4 Sudoeste 9 Sudoeste 0 -- -- 100
2020-03-19 07:00:00 11.1 2 Oeste 6 Noroeste 0 -- -- 100
2020-03-19 06:00:00 11.1 3 Noroeste 5 Noroeste 0 -- -- 100
2020-03-19 05:00:00 11.2 4 Noroeste 6 Noroeste 0 -- -- 100
2020-03-19 04:00:00 11.3 2 Norte 4 Norte 0 -- -- 99
2020-03-19 03:00:00 11.3 3 Noroeste 6 Norte 0 -- -- 99
2020-03-19 02:00:00 11.4 3 Norte 5 Norte 0 -- -- 99
2020-03-19 01:00:00 11.4 3 Sudeste 9 Sur 0 -- -- 99
2020-03-19 00:00:00 11.6 3 Sur 6 Sur 0 -- -- 98
2020-03-18 23:00:00 11.8 0 Calma 3 Este 0 -- -- 98
2020-03-18 22:00:00 11.8 0 Calma 5 Noroeste 0 -- -- 98
2020-03-18 21:00:00 11.6 4 Norte 5 Norte 0 -- -- 97
2020-03-18 20:00:00 11.8 3 Noroeste 8 Este 0 -- -- 95
2020-03-18 19:00:00 12.6 4 Este 8 Este 0 -- -- 93
2020-03-18 18:00:00 13.1 5 Nordeste 10 Nordeste 0 -- -- 91
2020-03-18 17:00:00 13.3 6 Este 10 Este 0 -- -- 91
2020-03-18 16:00:00 13.6 6 Nordeste 12 Este 0 -- -- 89
2020-03-18 15:00:00 13.5 6 Nordeste 11 Este 0 -- -- 91
2020-03-18 14:00:00 12.9 7 Este 11 Este 0 -- -- 92
2020-03-18 13:00:00 13.3 6 Este 12 Este 0 -- -- 91
2020-03-18 12:00:00 12.9 5 Nordeste 9 Este 0 -- -- 97
2020-03-18 11:00:00 11.5 3 Sudeste 4 Sudeste 0 -- -- 100
2020-03-18 10:00:00 9.7 3 Sudeste 5 Sur 0 -- -- 100
2020-03-18 09:00:00 8 3 Sudoeste 5 Sudoeste 0 -- -- 100
2020-03-18 08:00:00 6.5 2 Noroeste 7 Sur 0 -- -- 100
2020-03-18 07:00:00 6.7 2 Sudoeste 6 Sur 0 -- -- 100
2020-03-18 06:00:00 6.8 3 Sur 8 Sur 0 -- -- 100
2020-03-18 05:00:00 7.1 2 Sur 9 Sudoeste 0 -- -- 99
2020-03-18 04:00:00 7.2 6 Sudoeste 11 Sur 0 -- -- 99
2020-03-18 03:00:00 7.7 4 Sur 10 Sur 0 -- -- 99
2020-03-18 02:00:00 7.9 4 Sur 6 Sur 0 -- -- 98
2020-03-18 01:00:00 8.5 0 Calma 6 Sur 0 -- -- 97
2020-03-18 00:00:00 9 0 Calma 4 Sudoeste 0 -- -- 97
2020-03-17 23:00:00 10 2 Sudoeste 7 Oeste 0 -- -- 95
2020-03-17 22:00:00 10.9 2 Oeste 10 Este 0 -- -- 94
2020-03-17 21:00:00 11.4 6 Sudeste 23 Este 0 -- -- 93
2020-03-17 20:00:00 11.5 4 Sudeste 18 Este 0 -- -- 93
2020-03-17 19:00:00 12.2 12 Este 19 Este 0 -- -- 93
2020-03-17 18:00:00 12.6 5 Sudeste 16 Este 0 -- -- 93
2020-03-17 17:00:00 12.5 12 Este 20 Este 0 -- -- 92
2020-03-17 16:00:00 12.2 12 Este 18 Este 0 -- -- 92
2020-03-17 15:00:00 12.4 6 Este 12 Este 0 -- -- 90
2020-03-17 14:00:00 12 4 Este 8 Este 0 -- -- 92
2020-03-17 13:00:00 12.4 4 Este 8 Sur 0 -- -- 97
2020-03-17 12:00:00 11.7 4 Sur 8 Sur 0.2 -- -- 100
2020-03-17 11:00:00 10.6 2 Sudoeste 5 Sudoeste 0 -- -- 100
2020-03-17 10:00:00 10.2 3 Sur 7 Sur 0 -- -- 100
2020-03-17 09:00:00 9.9 4 Sur 11 Sur 0.2 -- -- 99
2020-03-17 08:00:00 9.7 7 Sur 12 Sur 0 -- -- 99
2020-03-17 07:00:00 9.8 4 Sur 9 Sur 0 -- -- 99
2020-03-17 06:00:00 9.7 5 Sudoeste 10 Sur 0 -- -- 98
2020-03-17 05:00:00 9.8 6 Sudoeste 12 Sudoeste 0.4 -- -- 98
2020-03-17 04:00:00 9.8 9 Sudoeste 13 Sudoeste 0.2 -- -- 98
2020-03-17 03:00:00 9.9 2 Oeste 8 Sur 0.2 -- -- 97
2020-03-17 02:00:00 9.9 4 Sudoeste 12 Sur 0.2 -- -- 97
2020-03-17 01:00:00 10 5 Sudoeste 12 Sudoeste 0 -- -- 95
2020-03-17 00:00:00 10.4 4 Noroeste 12 Norte 0.2 -- -- 92
2020-03-16 23:00:00 10.5 7 Noroeste 12 Noroeste 0 -- -- 90
2020-03-16 22:00:00 11 5 Noroeste 17 Nordeste 0 -- -- 87
2020-03-16 21:00:00 10.1 5 Noroeste 23 Norte 0.2 -- -- 92
2020-03-16 20:00:00 11.4 8 Nordeste 23 Nordeste 0 -- -- 85
2020-03-16 19:00:00 11.2 10 Nordeste 22 Nordeste 0 -- -- 87
2020-03-16 18:00:00 10.6 6 Nordeste 25 Norte 0.4 -- -- 92
2020-03-16 17:00:00 10.7 14 Norte 23 Noroeste 0.2 -- -- 94
2020-03-16 16:00:00 10.4 12 Norte 24 Norte 2 -- -- 95
2020-03-16 15:00:00 10.6 11 Norte 24 Norte 0.4 -- -- 93
2020-03-16 14:00:00 10.3 12 Norte 30 Nordeste 2.2 -- -- 92
2020-03-16 13:00:00 11.1 12 Norte 26 Norte 0.4 -- -- 86
2020-03-16 12:00:00 10.4 12 Norte 25 Norte 1 -- -- 89
2020-03-16 11:00:00 9.9 8 Norte 23 Norte 1.6 -- -- 93
2020-03-16 10:00:00 8.7 4 Sudoeste 11 Sudoeste 1 -- -- 96
2020-03-16 09:00:00 8 3 Noroeste 13 Norte 2 -- -- 95
2020-03-16 08:00:00 7.6 5 Oeste 22 Noroeste 2.4 -- -- 94
2020-03-16 07:00:00 7.1 10 Noroeste 25 Noroeste 2 -- -- 94
2020-03-16 06:00:00 6.9 10 Noroeste 26 Oeste 2.2 -- -- 93
2020-03-16 05:00:00 6.9 14 Noroeste 24 Noroeste 1.2 -- -- 93
2020-03-16 04:00:00 7.1 9 Oeste 24 Noroeste 0.6 -- -- 93
2020-03-16 03:00:00 7.2 13 Oeste 26 Oeste 0.2 -- -- 93
2020-03-16 02:00:00 7.3 12 Noroeste 25 Oeste 2 -- -- 94
2020-03-16 01:00:00 7.4 5 Oeste 16 Noroeste 1.8 -- -- 94
2020-03-16 00:00:00 7.8 9 Oeste 25 Oeste 0.4 -- -- 93
2020-03-15 23:00:00 8.3 14 Noroeste 25 Noroeste 2.6 -- -- 95
2020-03-15 22:00:00 8.9 9 Noroeste 23 Noroeste 1 -- -- 93
2020-03-15 21:00:00 9.2 12 Noroeste 37 Noroeste 1.6 -- -- 93
2020-03-15 20:00:00 9.8 20 Noroeste 41 Norte 1 -- -- 91
2020-03-15 19:00:00 12.6 6 Noroeste 12 Noroeste 0 -- -- 80
2020-03-15 18:00:00 13.4 6 Noroeste 17 Norte 0.2 -- -- 73
2020-03-15 17:00:00 14.3 10 Norte 21 Norte 0 -- -- 65
2020-03-15 16:00:00 14.3 8 Noroeste 20 Noroeste 0 -- -- 68
2020-03-15 15:00:00 14 13 Norte 25 Norte 0 -- -- 73
2020-03-15 14:00:00 14 14 Noroeste 25 Oeste 0 -- -- 78
2020-03-15 13:00:00 14.4 13 Noroeste 31 Norte 0 -- -- 78
2020-03-15 12:00:00 13.4 15 Noroeste 28 Norte 0 -- -- 82
2020-03-15 11:00:00 13.6 17 Norte 29 Noroeste 0 -- -- 83
2020-03-15 10:00:00 12 5 Sudoeste 12 Sudoeste 0 -- -- 93
2020-03-15 09:00:00 6.8 4 Sur 9 Sudoeste 0 -- -- 100
2020-03-15 08:00:00 3 3 Sur 5 Sur 0 -- -- 99
2020-03-15 07:00:00 3.3 5 Sudoeste 9 Sudoeste 0 -- -- 100
2020-03-15 06:00:00 3.8 6 Sur 14 Sudoeste 0 -- -- 99
2020-03-15 05:00:00 3.8 3 Sudoeste 15 Sudoeste 0 -- -- 98
2020-03-15 04:00:00 4.2 5 Sur 12 Sur 0 -- -- 98
2020-03-15 03:00:00 4.3 4 Sudoeste 6 Sur 0 -- -- 98
2020-03-15 02:00:00 4.7 3 Sudeste 6 Sudoeste 0 -- -- 96
2020-03-15 01:00:00 6.1 3 Este 16 Sur 0 -- -- 96
2020-03-15 00:00:00 6.3 10 Sur 18 Sur 0 -- -- 96
2020-03-14 23:00:00 6.5 8 Sur 12 Sudoeste 0 -- -- 95
2020-03-14 22:00:00 6.9 6 Sur 14 Sudoeste 0 -- -- 92
2020-03-14 21:00:00 8.2 3 Oeste 5 Sur 0 -- -- 87
2020-03-14 20:00:00 10.4 2 Este 12 Este 0 -- -- 78
2020-03-14 19:00:00 11.8 11 Este 24 Este 0 -- -- 76
2020-03-14 18:00:00 12.6 14 Este 24 Nordeste 0 -- -- 75
2020-03-14 17:00:00 13.2 14 Este 24 Este 0 -- -- 72
2020-03-14 16:00:00 13.2 15 Este 26 Este 0 -- -- 74
2020-03-14 15:00:00 13.6 15 Este 24 Este 0 -- -- 74
2020-03-14 14:00:00 14.5 5 Este 14 Este 0 -- -- 68
2020-03-14 13:00:00 13.8 7 Este 15 Este 0 -- -- 71
2020-03-14 12:00:00 13.2 8 Este 13 Este 0 -- -- 71
2020-03-14 11:00:00 12.2 4 Sur 15 Sur 0 -- -- 79
2020-03-14 10:00:00 8.5 11 Sur 20 Sur 0 -- -- 92
2020-03-14 09:00:00 5.7 11 Sur 18 Sur 0 -- -- 98
2020-03-14 08:00:00 3.9 9 Sur 18 Sur 0 -- -- 99
2020-03-14 07:00:00 3.6 8 Sur 13 Sur 0 -- -- 99
2020-03-14 06:00:00 2.9 7 Sur 11 Sur 0 -- -- 99
2020-03-14 05:00:00 3.2 7 Sur 15 Sur 0 -- -- 98
2020-03-14 04:00:00 3.3 7 Sudoeste 13 Sudoeste 0 -- -- 98
2020-03-14 03:00:00 3.8 7 Sur 13 Sudoeste 0 -- -- 97
2020-03-14 02:00:00 4.5 7 Sudoeste 13 Sur 0 -- -- 97
2020-03-14 01:00:00 4.4 7 Sur 12 Sur 0 -- -- 96
2020-03-14 00:00:00 5.4 10 Sur 17 Sur 0 -- -- 96
2020-03-13 23:00:00 5.6 6 Sudoeste 13 Sur 0 -- -- 95
2020-03-13 22:00:00 6.3 8 Sur 13 Sudoeste 0 -- -- 93
2020-03-13 21:00:00 7.1 2 Noroeste 6 Norte 0 -- -- 88
2020-03-13 20:00:00 9.2 4 Norte 12 Este 0 -- -- 80
2020-03-13 19:00:00 10.9 6 Este 21 Este 0 -- -- 73
2020-03-13 18:00:00 12 14 Este 25 Este 0 -- -- 70
2020-03-13 17:00:00 12.5 17 Este 27 Este 0 -- -- 69
2020-03-13 16:00:00 12.8 19 Este 28 Este 0 -- -- 65
2020-03-13 15:00:00 13.1 15 Este 24 Este 0 -- -- 65
2020-03-13 14:00:00 13 17 Este 29 Este 0 -- -- 65
2020-03-13 13:00:00 12.5 21 Este 30 Este 0 -- -- 71
2020-03-13 12:00:00 12 17 Este 28 Este 0 -- -- 77
2020-03-13 11:00:00 12.4 16 Este 24 Este 0 -- -- 77
2020-03-13 10:00:00 11.3 6 Este 14 Este 0 -- -- 92
2020-03-13 09:00:00 10.3 0 Calma 8 Sudoeste 0 -- -- 98
2020-03-13 08:00:00 9.9 3 Sur 8 Oeste 0 -- -- 98
2020-03-13 07:00:00 9.8 4 Oeste 6 Sudeste 0.2 -- -- 99
2020-03-13 06:00:00 9.9 3 Noroeste 6 Este 0.4 -- -- 99
2020-03-13 05:00:00 10 2 Noroeste 5 Noroeste 0 -- -- 99
2020-03-13 04:00:00 10.1 0 Calma 8 Este 0.2 -- -- 99
2020-03-13 03:00:00 10.2 5 Nordeste 15 Nordeste 0.2 -- -- 99
2020-03-13 02:00:00 10.5 3 Norte 8 Este 0.8 -- -- 99
2020-03-13 01:00:00 10.6 3 Sudoeste 5 Sudoeste 0.2 -- -- 99
2020-03-13 00:00:00 10.7 0 Calma 5 Sur 0 -- -- 99
2020-03-12 23:00:00 10.8 2 Sudoeste 6 Noroeste 0.4 -- -- 99
2020-03-12 22:00:00 10.8 2 Noroeste 4 Oeste 0.8 -- -- 98
2020-03-12 21:00:00 10.9 2 Sudoeste 5 Norte 0.2 -- -- 98
2020-03-12 20:00:00 11 4 Norte 9 Norte 0.6 -- -- 98
2020-03-12 19:00:00 11.3 3 Oeste 8 Sudoeste 0.4 -- -- 97
2020-03-12 18:00:00 11.4 4 Sudoeste 14 Nordeste 0.2 -- -- 97
2020-03-12 17:00:00 11.6 10 Norte 22 Nordeste 1.4 -- -- 96
2020-03-12 16:00:00 14.2 9 Norte 16 Noroeste 0 -- -- 86
2020-03-12 15:00:00 14.9 9 Norte 14 Norte 0 -- -- 79
2020-03-12 14:00:00 14.9 4 Nordeste 9 Este 0 -- -- 79
2020-03-12 13:00:00 14.9 4 Este 8 Nordeste 0 -- -- 82
2020-03-12 12:00:00 14.1 4 Noroeste 8 Norte 0 -- -- 89
2020-03-12 11:00:00 13.1 2 Este 6 Este 0 -- -- 92
2020-03-12 10:00:00 12.7 3 Norte 13 Sur 0 -- -- 94
2020-03-12 09:00:00 11.7 5 Sudoeste 12 Sudoeste 0 -- -- 96
2020-03-12 08:00:00 11.6 8 Sur 18 Sur 0 -- -- 96
2020-03-12 07:00:00 11.4 9 Sur 17 Sur 0 -- -- 97
2020-03-12 06:00:00 10.9 6 Sur 10 Sudoeste 0 -- -- 98
2020-03-12 05:00:00 10.6 7 Sudoeste 9 Sudoeste 0 -- -- 98
2020-03-12 04:00:00 10.3 6 Sur 9 Sur 0 -- -- 98
2020-03-12 03:00:00 10.2 7 Sur 9 Sudoeste 0 -- -- 98
2020-03-12 02:00:00 10.2 5 Sudoeste 8 Noroeste 0 -- -- 98
2020-03-12 01:00:00 8.8 2 Sudoeste 8 Oeste 0 -- -- 99
2020-03-12 00:00:00 8.1 0 Calma -- -- 0 -- -- 96
2020-03-11 23:00:00 8.9 0 Calma 5 Sudoeste 0 -- -- 96
2020-03-11 22:00:00 9.4 2 Sudoeste 4 Sudoeste 0 -- -- 95
2020-03-11 21:00:00 10.2 0 Calma 5 Norte 0 -- -- 93
2020-03-11 20:00:00 11.8 4 Noroeste 4 Noroeste 0 -- -- 89
2020-03-11 19:00:00 13.2 3 Este 11 Nordeste 0 -- -- 85
2020-03-11 18:00:00 14.2 6 Nordeste 14 Norte 0 -- -- 81
2020-03-11 17:00:00 14.7 8 Nordeste 21 Este 0 -- -- 81
2020-03-11 16:00:00 15.2 6 Nordeste 24 Este 0 -- -- 79
2020-03-11 15:00:00 14.9 13 Este 32 Este 0 -- -- 79
2020-03-11 14:00:00 14.4 21 Este 31 Este 0 -- -- 81
2020-03-11 13:00:00 15.2 17 Este 26 Este 0 -- -- 78
2020-03-11 12:00:00 14.5 15 Este 24 Este 0 -- -- 81
2020-03-11 11:00:00 13.9 5 Nordeste 10 Nordeste 0 -- -- 83
2020-03-11 10:00:00 10.9 6 Sur 10 Sur 0 -- -- 98
2020-03-11 09:00:00 7.9 8 Sur 18 Sur 0 -- -- 100
2020-03-11 08:00:00 6 6 Sur 13 Sur 0 -- -- 99
2020-03-11 07:00:00 6.5 5 Sur 13 Sur 0 -- -- 99
2020-03-11 06:00:00 6.2 7 Sur 15 Sur 0 -- -- 99
2020-03-11 05:00:00 7 11 Sur 18 Sur 0 -- -- 99
2020-03-11 04:00:00 6.8 7 Sudoeste 14 Sur 0 -- -- 99
2020-03-11 03:00:00 6.6 3 Oeste 14 Sur 0 -- -- 99
2020-03-11 02:00:00 7.9 7 Sudoeste 14 Sur 0 -- -- 98
2020-03-11 01:00:00 7.6 5 Sur 13 Sur 0 -- -- 97
2020-03-11 00:00:00 8.6 10 Sur 14 Sur 0 -- -- 97
2020-03-10 23:00:00 7.7 3 Sur 5 Sur 0 -- -- 96
2020-03-10 22:00:00 8.6 3 Sur 8 Sur 0 -- -- 96
2020-03-10 21:00:00 9.1 0 Calma 4 Noroeste 0 -- -- 93
2020-03-10 20:00:00 10.9 3 Norte 5 Norte 0 -- -- 88
2020-03-10 19:00:00 13.2 2 Noroeste 8 Este 0 -- -- 81
2020-03-10 18:00:00 14.1 5 Nordeste 9 Norte 0 -- -- 78
2020-03-10 17:00:00 14 6 Nordeste 14 Este 0 -- -- 79
2020-03-10 16:00:00 14.2 6 Nordeste 17 Nordeste 0 -- -- 77
2020-03-10 15:00:00 15 8 Nordeste 15 Este 0 -- -- 73
2020-03-10 14:00:00 14.8 8 Nordeste 15 Este 0 -- -- 77
2020-03-10 13:00:00 14.7 7 Nordeste 14 Nordeste 0 -- -- 76
2020-03-10 12:00:00 14.5 5 Este 10 Sur 0 -- -- 77
2020-03-10 11:00:00 11.7 6 Sur 12 Sur 0 -- -- 85
2020-03-10 10:00:00 9.1 4 Sur 17 Sur 0 -- -- 93
2020-03-10 09:00:00 6.8 10 Sur 17 Sur 0 -- -- 97
2020-03-10 08:00:00 6 8 Sur 18 Sur 0 -- -- 96
2020-03-10 07:00:00 6 6 Sur 16 Sur 0 -- -- 95
2020-03-10 06:00:00 6.9 8 Sur 17 Sur 0 -- -- 94
2020-03-10 05:00:00 6.9 9 Sur 22 Sur 0 -- -- 94
2020-03-10 04:00:00 7.1 8 Sur 21 Sur 0 -- -- 92
2020-03-10 03:00:00 7.6 10 Sur 17 Sur 0 -- -- 92
2020-03-10 02:00:00 7.8 10 Sur 18 Sur 0 -- -- 93
2020-03-10 01:00:00 8.3 11 Sur 18 Sur 0 -- -- 91
2020-03-10 00:00:00 8.4 7 Sur 11 Sudoeste 0 -- -- 93
2020-03-09 23:00:00 9 6 Sur 12 Sur 0 -- -- 90
2020-03-09 22:00:00 10.3 4 Sudoeste 9 Sudoeste 0 -- -- 83
2020-03-09 21:00:00 10.7 5 Oeste 8 Sudoeste 0 -- -- 81
2020-03-09 20:00:00 11.1 4 Oeste 15 Oeste 0 -- -- 81
2020-03-09 19:00:00 12.4 7 Noroeste 21 Noroeste 0 -- -- 74
2020-03-09 18:00:00 13.2 8 Noroeste 30 Noroeste 0 -- -- 72
2020-03-09 17:00:00 13.6 13 Noroeste 32 Noroeste 0 -- -- 71
2020-03-09 16:00:00 13.7 17 Norte 40 Norte 0 -- -- 71
2020-03-09 15:00:00 13.8 15 Noroeste 35 Noroeste 0 -- -- 71
2020-03-09 14:00:00 13.4 15 Noroeste 40 Noroeste 0 -- -- 69
2020-03-09 13:00:00 13.6 15 Noroeste 38 Noroeste 0 -- -- 71
2020-03-09 12:00:00 12.8 14 Noroeste 40 Noroeste 0 -- -- 76
2020-03-09 11:00:00 12.8 10 Noroeste 31 Oeste 0 -- -- 78
2020-03-09 10:00:00 12.3 14 Noroeste 32 Noroeste 0 -- -- 79
2020-03-09 09:00:00 11.4 13 Noroeste 33 Noroeste 0 -- -- 83
2020-03-09 08:00:00 10.9 6 Oeste 29 Noroeste 0.2 -- -- 87
2020-03-09 07:00:00 11.4 14 Noroeste 29 Noroeste 0 -- -- 81
2020-03-09 06:00:00 11.3 13 Noroeste 30 Noroeste 0 -- -- 81
2020-03-09 05:00:00 11.3 15 Noroeste 30 Noroeste 0.2 -- -- 82
2020-03-09 04:00:00 10.9 7 Oeste 30 Noroeste 0 -- -- 85
2020-03-09 03:00:00 10.6 10 Oeste 24 Oeste 0.2 -- -- 87
2020-03-09 02:00:00 10.8 9 Noroeste 23 Noroeste 0.2 -- -- 89
2020-03-09 01:00:00 10.9 10 Oeste 27 Noroeste 0.2 -- -- 88
2020-03-09 00:00:00 11 12 Noroeste 26 Oeste 0.8 -- -- 89
2020-03-08 23:00:00 11.5 15 Noroeste 27 Noroeste 1.8 -- -- 88
2020-03-08 22:00:00 12.4 10 Noroeste 32 Noroeste 0.2 -- -- 82
2020-03-08 21:00:00 12.6 9 Oeste 30 Noroeste 0 -- -- 81
2020-03-08 20:00:00 13.3 14 Noroeste 29 Oeste 0 -- -- 78
2020-03-08 19:00:00 13.3 9 Noroeste 32 Oeste 0 -- -- 76
2020-03-08 18:00:00 13.7 14 Noroeste 35 Noroeste 0 -- -- 73
2020-03-08 17:00:00 14.4 14 Noroeste 37 Noroeste 0 -- -- 72
2020-03-08 16:00:00 15.5 18 Norte 30 Norte 0 -- -- 71
2020-03-08 15:00:00 17.9 13 Noroeste 23 Norte 0 -- -- 60
2020-03-08 14:00:00 16.7 8 Noroeste 25 Noroeste 0 -- -- 68
2020-03-08 13:00:00 15.1 5 Sur 15 Sur 0 -- -- 73
2020-03-08 12:00:00 13.3 9 Sur 15 Sur 0 -- -- 77
2020-03-08 11:00:00 10.3 6 Sur 19 Sur 0 -- -- 89
2020-03-08 10:00:00 8.7 13 Sur 24 Sur 0 -- -- 91
2020-03-08 09:00:00 6.9 11 Sur 23 Sur 0 -- -- 96
2020-03-08 08:00:00 5.9 10 Sur 22 Sur 0 -- -- 97
2020-03-08 07:00:00 5 9 Sur 19 Sur 0 -- -- 98
2020-03-08 06:00:00 4.9 8 Sur 16 Sur 0 -- -- 97
2020-03-08 05:00:00 4.6 6 Sudoeste 17 Sudoeste 0 -- -- 97
2020-03-08 04:00:00 4.5 7 Sur 20 Sur 0 -- -- 97
2020-03-08 03:00:00 4.5 9 Sur 19 Sur 0 -- -- 98
2020-03-08 02:00:00 4.9 9 Sur 14 Sur 0 -- -- 97
2020-03-08 01:00:00 5.2 2 Sudoeste 17 Sudoeste 0 -- -- 95
2020-03-08 00:00:00 6.4 9 Sur 17 Sur 0 -- -- 97
2020-03-07 23:00:00 6.4 7 Sur 14 Sur 0 -- -- 95
2020-03-07 22:00:00 7.1 8 Sur 13 Sudoeste 0 -- -- 93
2020-03-07 21:00:00 8.3 5 Sur 8 Sudoeste 0 -- -- 90
2020-03-07 20:00:00 10.2 2 Sur 5 Sudoeste 0 -- -- 83
2020-03-07 19:00:00 12.5 3 Norte 10 Norte 0 -- -- 75
2020-03-07 18:00:00 13.6 7 Norte 20 Norte 0 -- -- 65
2020-03-07 17:00:00 13.9 12 Norte 22 Norte 0 -- -- 62
2020-03-07 16:00:00 14.3 15 Norte 27 Norte 0 -- -- 61
2020-03-07 15:00:00 14.8 15 Norte 30 Norte 0 -- -- 63
2020-03-07 14:00:00 13.6 11 Noroeste 20 Noroeste 0 -- -- 74
2020-03-07 13:00:00 12 4 Oeste 22 Noroeste 0 -- -- 89
2020-03-07 12:00:00 11.6 9 Noroeste 31 Noroeste 1 -- -- 92
2020-03-07 11:00:00 11.7 9 Noroeste 25 Oeste 0.4 -- -- 89
2020-03-07 10:00:00 11.9 12 Noroeste 24 Noroeste 0 -- -- 88
2020-03-07 09:00:00 11.4 12 Noroeste 24 Noroeste 0 -- -- 89
2020-03-07 08:00:00 11.3 10 Noroeste 21 Oeste 0 -- -- 88
2020-03-07 07:00:00 11 13 Noroeste 22 Noroeste 0 -- -- 89
2020-03-07 06:00:00 10.7 10 Noroeste 29 Noroeste 0 -- -- 88
2020-03-07 05:00:00 10.9 10 Noroeste 25 Noroeste 0 -- -- 88
2020-03-07 04:00:00 10.4 14 Noroeste 33 Noroeste 0 -- -- 89
2020-03-07 03:00:00 10 16 Noroeste 34 Oeste 0 -- -- 89
2020-03-07 02:00:00 10.8 14 Noroeste 37 Noroeste 0 -- -- 83
2020-03-07 01:00:00 10.4 14 Noroeste 31 Noroeste 0 -- -- 80
2020-03-07 00:00:00 9.7 6 Oeste 35 Noroeste 0 -- -- 78
2020-03-06 23:00:00 9.2 13 Noroeste 42 Noroeste 1.4 -- -- 84
2020-03-06 22:00:00 10.1 14 Noroeste 37 Noroeste 0 -- -- 80
2020-03-06 21:00:00 8.6 13 Norte 36 Norte 0.8 -- -- 85
2020-03-06 20:00:00 8.9 15 Norte 45 Noroeste 0.2 -- -- 77
2020-03-06 19:00:00 9.8 17 Noroeste 52 Noroeste 0 -- -- 71
2020-03-06 18:00:00 10.1 22 Noroeste 56 Noroeste 0 -- -- 71
2020-03-06 17:00:00 10.5 24 Noroeste 48 Noroeste 0 -- -- 71
2020-03-06 16:00:00 9.3 20 Noroeste 58 Noroeste 0 -- -- 75
2020-03-06 15:00:00 11.1 28 Noroeste 63 Noroeste 0 -- -- 64
2020-03-06 14:00:00 10.6 27 Noroeste 65 Noroeste 0.2 -- -- 71
2020-03-06 13:00:00 10.1 24 Noroeste 58 Norte 0.4 -- -- 72
2020-03-06 12:00:00 10.8 25 Noroeste 59 Noroeste 0 -- -- 67
2020-03-06 11:00:00 10.4 26 Noroeste 46 Noroeste 0 -- -- 72
2020-03-06 10:00:00 8.8 26 Noroeste 51 Noroeste 0.2 -- -- 73
2020-03-06 09:00:00 6.8 23 Noroeste 58 Noroeste 1.2 -- -- 84
2020-03-06 08:00:00 7 17 Noroeste 77 Oeste 2.4 -- -- 90
2020-03-06 07:00:00 7.3 13 Oeste 49 Oeste 2.6 -- -- 88
2020-03-06 06:00:00 7.7 29 Noroeste 55 Noroeste 2.4 -- -- 87
2020-03-06 05:00:00 7.7 30 Noroeste 69 Oeste 2.8 -- -- 86
2020-03-06 04:00:00 8.9 22 Noroeste 46 Noroeste 1.6 -- -- 84
2020-03-06 03:00:00 9.3 11 Oeste 39 Noroeste 0.4 -- -- 79
2020-03-06 02:00:00 8.9 11 Oeste 23 Noroeste 0 -- -- 84
2020-03-06 01:00:00 7.9 9 Sur 14 Sur 0 -- -- 85
2020-03-06 00:00:00 9.4 5 Sudoeste 18 Sudoeste 0 -- -- 79
2020-03-05 23:00:00 10.3 9 Oeste 18 Oeste 0 -- -- 80
2020-03-05 22:00:00 9.7 8 Oeste 35 Oeste 0.4 -- -- 83
2020-03-05 21:00:00 9.9 10 Sudoeste 27 Oeste 0.4 -- -- 86
2020-03-05 20:00:00 10.3 15 Noroeste 37 Noroeste 2.2 -- -- 85
2020-03-05 19:00:00 10.7 16 Noroeste 39 Norte 1.6 -- -- 85
2020-03-05 18:00:00 12.3 16 Noroeste 48 Oeste 0 -- -- 71
2020-03-05 17:00:00 11.9 23 Noroeste 58 Noroeste 0.4 -- -- 79
2020-03-05 16:00:00 11.7 28 Noroeste 65 Noroeste 0.8 -- -- 81
2020-03-05 15:00:00 11.9 27 Noroeste 72 Noroeste 0.4 -- -- 85
2020-03-05 14:00:00 13 26 Noroeste 64 Oeste 0 -- -- 74
2020-03-05 13:00:00 14.9 33 Noroeste 65 Oeste 0.2 -- -- 64
2020-03-05 12:00:00 15.4 23 Noroeste 47 Oeste 0 -- -- 63
2020-03-05 11:00:00 13.7 10 Oeste 27 Oeste 0.2 -- -- 84
2020-03-05 10:00:00 11.5 5 Sudoeste 21 Oeste 2.8 -- -- 93
2020-03-05 09:00:00 11.8 9 Oeste 42 Oeste 1.8 -- -- 89
2020-03-05 08:00:00 12.1 19 Noroeste 49 Noroeste 1.8 -- -- 88
2020-03-05 07:00:00 14.4 26 Noroeste 57 Noroeste 0.4 -- -- 85
2020-03-05 06:00:00 19.6 15 Sudoeste 40 Oeste 0 -- -- 55
2020-03-05 05:00:00 18.9 12 Sudoeste 28 Sudoeste 0 -- -- 59
2020-03-05 04:00:00 14.8 3 Sudoeste 13 Sudoeste 0 -- -- 80
2020-03-05 03:00:00 12.8 5 Sudoeste 12 Sudoeste 0 -- -- 93
2020-03-05 02:00:00 12.3 4 Sur 11 Sudoeste 0 -- -- 93
2020-03-05 01:00:00 12.7 6 Sur 13 Sudoeste 0 -- -- 93
2020-03-05 00:00:00 12.9 5 Sur 8 Sudoeste 0 -- -- 91
2020-03-04 23:00:00 13.9 5 Sudoeste 14 Sur 0 -- -- 87
2020-03-04 22:00:00 14.5 8 Sur 18 Sur 0 -- -- 85
2020-03-04 21:00:00 14.2 11 Sur 22 Sur 0 -- -- 89
2020-03-04 20:00:00 14.7 6 Sur 9 Sur 0 -- -- 87
2020-03-04 19:00:00 16.2 0 Calma 3 Sur 0 -- -- 83
2020-03-04 18:00:00 17 0 Calma 5 Sudeste 0 -- -- 78
2020-03-04 17:00:00 17.1 3 Sudeste 13 Este 0 -- -- 76
2020-03-04 16:00:00 17 7 Nordeste 14 Este 0 -- -- 76
2020-03-04 15:00:00 18.3 6 Este 12 Este 0 -- -- 70
2020-03-04 14:00:00 18.3 4 Este 13 Norte 0 -- -- 75
2020-03-04 13:00:00 18.4 5 Norte 17 Norte 0 -- -- 72
2020-03-04 12:00:00 17.7 7 Norte 14 Sudeste 0 -- -- 75
2020-03-04 11:00:00 15.6 6 Norte 32 Norte 0 -- -- 96
2020-03-04 10:00:00 13.9 0 Calma 6 Este 0 -- -- 99
2020-03-04 09:00:00 12.3 2 Oeste 5 Este 0 -- -- 100
2020-03-04 08:00:00 11.2 5 Sur 11 Sur 0 -- -- 99
2020-03-04 07:00:00 10.9 8 Sur 15 Sur 0 -- -- 99
2020-03-04 06:00:00 10.8 10 Sur 17 Sur 0.6 -- -- 99
2020-03-04 05:00:00 10.6 5 Sur 13 Sur 2.8 -- -- 99
2020-03-04 04:00:00 10.6 6 Sur 11 Sur 0.8 -- -- 98
2020-03-04 03:00:00 10.6 4 Sur 13 Sur 0.2 -- -- 97
2020-03-04 02:00:00 10.6 3 Sudeste 15 Sur 0.2 -- -- 97
2020-03-04 01:00:00 10.5 9 Sur 17 Sudeste 0 -- -- 97
2020-03-04 00:00:00 10.5 5 Sur 10 Sur 0 -- -- 97
2020-03-03 23:00:00 10.8 5 Sudoeste 8 Sur 0 -- -- 96
2020-03-03 22:00:00 11 0 Calma 6 Sudoeste 0.2 -- -- 95
2020-03-03 21:00:00 11.3 0 Calma 8 Norte 0.2 -- -- 91
2020-03-03 20:00:00 11.9 5 Norte 19 Noroeste 0 -- -- 84
2020-03-03 19:00:00 12.6 13 Noroeste 36 Noroeste 0 -- -- 77
2020-03-03 18:00:00 13.1 13 Noroeste 39 Oeste 0 -- -- 79
2020-03-03 17:00:00 14.1 21 Noroeste 49 Oeste 0 -- -- 74
2020-03-03 16:00:00 15.4 27 Noroeste 71 Noroeste 0 -- -- 62
2020-03-03 15:00:00 15.2 35 Noroeste 87 Noroeste 0 -- -- 68
2020-03-03 14:00:00 16.6 38 Noroeste 75 Noroeste 0 -- -- 63
2020-03-03 13:00:00 17 27 Noroeste 77 Noroeste 0 -- -- 64
2020-03-03 12:00:00 17.4 28 Noroeste 60 Noroeste 0 -- -- 66
2020-03-03 11:00:00 17.1 14 Noroeste 34 Oeste 0 -- -- 57
2020-03-03 10:00:00 12.3 11 Oeste 28 Noroeste 0.2 -- -- 90
2020-03-03 09:00:00 7.9 10 Sudoeste 16 Sur 0.2 -- -- 94
2020-03-03 08:00:00 7.8 8 Sur 17 Sur 0.6 -- -- 94
2020-03-03 07:00:00 7.4 5 Sudoeste 12 Sur 1.4 -- -- 92
2020-03-03 06:00:00 7.8 4 Sudoeste 12 Sur 1 -- -- 85
2020-03-03 05:00:00 8.1 5 Oeste 11 Sur 0.2 -- -- 79
2020-03-03 04:00:00 7.3 9 Sur 18 Sur 0 -- -- 83
2020-03-03 03:00:00 7.2 9 Sur 15 Sur 0 -- -- 83
2020-03-03 02:00:00 7 7 Sur 10 Sur 0 -- -- 85
2020-03-03 01:00:00 8 8 Sudoeste 13 Sudoeste 0 -- -- 69
2020-03-03 00:00:00 8.1 5 Sudoeste 21 Sudoeste 0 -- -- 67
2020-03-02 23:00:00 8.2 10 Oeste 26 Sudoeste 0 -- -- 70
2020-03-02 22:00:00 8.2 8 Oeste 39 Norte 0.2 -- -- 76
2020-03-02 21:00:00 7.6 13 Oeste 37 Oeste 1 -- -- 81
2020-03-02 20:00:00 8.1 16 Oeste 40 Oeste 0 -- -- 75
2020-03-02 19:00:00 8.2 15 Oeste 48 Noroeste 0 -- -- 77
2020-03-02 18:00:00 9.5 17 Oeste 43 Oeste 0 -- -- 70
2020-03-02 17:00:00 10.7 19 Noroeste 50 Noroeste 0 -- -- 58
2020-03-02 16:00:00 8.9 17 Oeste 57 Noroeste 0.8 -- -- 81
2020-03-02 15:00:00 8.2 23 Oeste 52 Oeste 1.2 -- -- 78
2020-03-02 14:00:00 6.9 21 Noroeste 44 Noroeste 5 -- -- 88
2020-03-02 13:00:00 7.2 17 Oeste 42 Oeste 2 -- -- 86
2020-03-02 12:00:00 7.4 17 Oeste 46 Oeste 1.4 -- -- 82
2020-03-02 11:00:00 9.5 21 Oeste 49 Oeste 0.6 -- -- 76
2020-03-02 10:00:00 8.3 21 Noroeste 50 Oeste 1 -- -- 78
2020-03-02 09:00:00 8.4 20 Oeste 47 Oeste 0.8 -- -- 78
2020-03-02 08:00:00 8.6 18 Oeste 71 Noroeste 2.2 -- -- 84
2020-03-02 07:00:00 9.3 37 Noroeste 75 Noroeste 1.4 -- -- 81
2020-03-02 06:00:00 10.5 28 Noroeste 61 Noroeste 2.6 -- -- 85
2020-03-02 05:00:00 10.2 22 Oeste 57 Noroeste 3.8 -- -- 86
2020-03-02 04:00:00 10.9 15 Noroeste 33 Oeste 5 -- -- 92
2020-03-02 03:00:00 11.5 8 Noroeste 30 Noroeste 0.2 -- -- 84
2020-03-02 02:00:00 14.1 14 Noroeste 37 Oeste 0.2 -- -- 64
2020-03-02 01:00:00 16.5 21 Oeste 44 Oeste 0 -- -- 51
2020-03-02 00:00:00 14.3 20 Sudoeste 42 Oeste 0.2 -- -- 60
2020-03-01 23:00:00 11.2 3 Sudeste 8 Sudoeste 0 -- -- 88
2020-03-01 22:00:00 11.5 3 Sudoeste 12 Sur 0 -- -- 84
2020-03-01 21:00:00 11.6 3 Sur 10 Sur 0 -- -- 84
2020-03-01 20:00:00 12.2 5 Noroeste 9 Nordeste 0 -- -- 80
2020-03-01 19:00:00 12.8 10 Este 15 Este 0 -- -- 77
2020-03-01 18:00:00 13.6 5 Este 10 Nordeste 0 -- -- 70
2020-03-01 17:00:00 14.3 8 Norte 23 Noroeste 0 -- -- 66
2020-03-01 16:00:00 15.3 12 Norte 21 Noroeste 0 -- -- 65
2020-03-01 15:00:00 15.9 9 Norte 20 Norte 0 -- -- 61
2020-03-01 14:00:00 14.8 9 Noroeste 28 Oeste 0 -- -- 63
2020-03-01 13:00:00 14.9 16 Noroeste 37 Noroeste 0 -- -- 64
2020-03-01 12:00:00 14 23 Noroeste 38 Noroeste 0 -- -- 66
2020-03-01 11:00:00 17.2 14 Noroeste 31 Noroeste 0 -- -- 40
2020-03-01 10:00:00 16.5 10 Sudoeste 35 Sudoeste 0 -- -- 44
2020-03-01 09:00:00 15.4 15 Oeste 42 Sudoeste 0 -- -- 43
2020-03-01 08:00:00 15.6 23 Oeste 49 Oeste 0 -- -- 39
2020-03-01 07:00:00 5.6 4 Sur 11 Sur 0 -- -- 97
2020-03-01 06:00:00 6.3 5 Sur 13 Sur 0 -- -- 97
2020-03-01 05:00:00 6.2 3 Sur 10 Sur 0 -- -- 96
2020-03-01 04:00:00 7.5 2 Oeste 7 Sur 0 -- -- 92
2020-03-01 03:00:00 8.9 3 Norte 6 Sudoeste 0 -- -- 88
2020-03-01 02:00:00 9.2 6 Sur 14 Sur 0 -- -- 88
2020-03-01 01:00:00 9.3 6 Sur 10 Sur 0 -- -- 84
2020-03-01 00:00:00 10.4 6 Sur 13 Sur 0 -- -- 80
2020-02-29 23:00:00 11 5 Sur 10 Sudeste 0 -- -- 81
2020-02-29 22:00:00 11.1 5 Sur 8 Sur 0 -- -- 79
2020-02-29 21:00:00 11.8 4 Sudoeste 8 Sudoeste 0 -- -- 71
2020-02-29 20:00:00 11.9 4 Sudoeste 7 Sudoeste 0 -- -- 71
2020-02-29 19:00:00 12.4 3 Sur 11 Oeste 0 -- -- 68
2020-02-29 18:00:00 12.8 4 Noroeste 18 Oeste 0 -- -- 66
2020-02-29 17:00:00 12.8 10 Oeste 22 Oeste 0 -- -- 65
2020-02-29 16:00:00 12.7 14 Oeste 37 Noroeste 0 -- -- 62
2020-02-29 15:00:00 13.8 14 Noroeste 24 Noroeste 0 -- -- 59
2020-02-29 14:00:00 14 7 Noroeste 18 Oeste 0 -- -- 62
2020-02-29 13:00:00 13.6 4 Oeste 20 Noroeste 0 -- -- 67
2020-02-29 12:00:00 13.3 10 Noroeste 23 Noroeste 0 -- -- 69
2020-02-29 11:00:00 13.5 13 Noroeste 32 Oeste 0 -- -- 71
2020-02-29 10:00:00 14.4 6 Norte 15 Norte 0 -- -- 66
2020-02-29 09:00:00 15.1 9 Noroeste 38 Oeste 0 -- -- 56
2020-02-29 08:00:00 17 16 Oeste 44 Sudoeste 0 -- -- 39
2020-02-29 07:00:00 18.6 19 Oeste 48 Oeste 0 -- -- 33
2020-02-29 06:00:00 18.6 18 Sudoeste 43 Sudoeste 0 -- -- 29
2020-02-29 05:00:00 18.5 23 Sudoeste 62 Noroeste 0 -- -- 24
2020-02-29 04:00:00 19.2 22 Sudoeste 56 Sudoeste 0 -- -- 25
2020-02-29 03:00:00 19.6 14 Sudoeste 38 Oeste 0 -- -- 23
2020-02-29 02:00:00 19 15 Sudoeste 39 Oeste 0 -- -- 24
2020-02-29 01:00:00 13.1 8 Sur 41 Oeste 0 -- -- 58
2020-02-29 00:00:00 10 5 Sur 11 Sudeste 0 -- -- 72
2020-02-28 23:00:00 9.2 2 Sudoeste 9 Sudeste 0 -- -- 90
2020-02-28 22:00:00 9.4 5 Sur 14 Sudoeste 0 -- -- 96
2020-02-28 21:00:00 10.3 4 Noroeste 11 Sur 0 -- -- 94
2020-02-28 20:00:00 11.1 4 Sur 11 Oeste 0 -- -- 90
2020-02-28 19:00:00 13.3 5 Noroeste 10 Nordeste 0 -- -- 82
2020-02-28 18:00:00 14.2 6 Nordeste 18 Nordeste 0 -- -- 79
2020-02-28 17:00:00 14.6 7 Nordeste 23 Este 0 -- -- 78
2020-02-28 16:00:00 17 5 Noroeste 13 Este 0 -- -- 63
2020-02-28 15:00:00 17.2 5 Norte 14 Este 0 -- -- 58
2020-02-28 14:00:00 16.2 7 Nordeste 12 Nordeste 0 -- -- 67
2020-02-28 13:00:00 15.6 6 Nordeste 10 Este 0 -- -- 70
2020-02-28 12:00:00 15.3 5 Nordeste 12 Sur 0 -- -- 68
2020-02-28 11:00:00 12.6 8 Sur 16 Sudoeste 0 -- -- 88
2020-02-28 10:00:00 9.7 10 Sur 23 Sur 0 -- -- 97
2020-02-28 09:00:00 8.2 7 Sur 12 Sudeste 0 -- -- 98
2020-02-28 08:00:00 7.8 5 Sudoeste 12 Sur 0 -- -- 98
2020-02-28 07:00:00 8.2 6 Sur 12 Sur 0 -- -- 97
2020-02-28 06:00:00 8.8 6 Sur 14 Sur 0 -- -- 95
2020-02-28 05:00:00 9 5 Sur 10 Sur 0 -- -- 93
2020-02-28 04:00:00 10.6 6 Sudoeste 10 Sudoeste 0 -- -- 89
2020-02-28 03:00:00 10.7 6 Sudoeste 9 Sudoeste 0 -- -- 90
2020-02-28 02:00:00 12.1 4 Sudoeste 17 Oeste 0 -- -- 83
2020-02-28 01:00:00 12.7 6 Sudoeste 15 Sur 0 -- -- 84
2020-02-28 00:00:00 13.2 6 Sudoeste 15 Oeste 0 -- -- 85